Terminal Aerodrome Forecast
Issued by NWS Burlington, VT

Home | Current Version | Previous Version | Text Only | Print | Product List | Glossary On
Versions: 1 2 3 4 5 6 7 8 9 10 11 12 13 14 15 16 17 18 19 20 21 22 23 24 25 26 27 28 29 30 31 32
000
FTUS41 KBTV 192004 AAB
TAFBTV
TAF AMD
KBTV 192004Z 1920/2018 22008KT P6SM -SHRA OVC050
      TEMPO 1920/1922 6SM -SHRA BR BKN025
     FM192200 29008KT 4SM -SHRA BR OVC008
     FM200200 33007KT 3SM +SHRA BR OVC007
     FM200800 VRB03KT 6SM -SHRA OVC007=

USA.gov is the U.S. government's official web portal to all federal, state and local government web resources and services.